Time;durP1;ratioP1;P1;durP2;ratioP2;P2;SDS_P1;SDS_P2;PMS_P1;PMS_P2;Temp;Humidity;BMP_temperature;BMP_pressure;BME280_temperature;BME280_humidity;BME280_pressure;Samples;Min_cycle;Max_cycle;Signal;HPM_P1;HPM_P2
2022/09/23 19:25:25;;;;;;;11.82;6.22;;;;;;;;;;6766550;19;27237;-83
2022/09/23 19:27:50;;;;;;;10.83;5.87;;;;;;;;;;7336147;19;20413;-82
2022/09/23 19:30:16;;;;;;;8.63;5.57;;;;;;;;;;7352356;19;20872;-83
2022/09/23 19:32:43;;;;;;;11.77;6.93;;;;;;;;;;7354306;19;20017;-82
2022/09/23 19:35:08;;;;;;;11.35;5.90;;;;;;;;;;7363998;19;20017;-81
2022/09/23 19:37:33;;;;;;;8.98;4.90;;;;;;;;;;7357628;19;20568;-80
2022/09/23 19:39:59;;;;;;;11.07;5.05;;;;;;;;;;7356854;19;20010;-82
2022/09/23 19:42:26;;;;;;;9.57;5.27;;;;;;;;;;7343857;19;20102;-81
2022/09/23 19:44:51;;;;;;;9.65;5.75;;;;;;;;;;7335852;19;21076;-82
2022/09/23 19:47:17;;;;;;;8.98;4.82;;;;;;;;;;7355873;19;20025;-80
2022/09/23 19:49:42;;;;;;;9.93;4.57;;;;;;;;;;7361776;19;20030;-82
2022/09/23 19:52:07;;;;;;;10.00;4.32;;;;;;;;;;7363408;19;20247;-80
2022/09/23 19:54:32;;;;;;;7.25;3.75;;;;;;;;;;7356107;19;20471;-82
2022/09/23 19:56:58;;;;;;;11.57;3.92;;;;;;;;;;7356507;19;20117;-82
2022/09/23 19:59:25;;;;;;;7.68;4.30;;;;;;;;;;7361463;19;20019;-82
2022/09/23 20:01:50;;;;;;;11.75;5.32;;;;;;;;;;7362489;19;20053;-80
2022/09/23 20:04:15;;;;;;;11.33;5.10;;;;;;;;;;7360445;19;20443;-80
2022/09/23 20:06:40;;;;;;;11.35;5.50;;;;;;;;;;7355701;19;20251;-81
2022/09/23 20:09:06;;;;;;;11.23;5.45;;;;;;;;;;7361358;19;20014;-80
2022/09/23 20:11:32;;;;;;;11.40;5.20;;;;;;;;;;7358116;19;20014;-82
2022/09/23 20:14:03;;;;;;;12.73;6.40;;;;;;;;;;7362224;19;20019;-80
2022/09/23 20:16:30;;;;;;;10.65;5.10;;;;;;;;;;7357922;19;20014;-82
2022/09/23 20:18:56;;;;;;;11.25;5.85;;;;;;;;;;7360760;19;20074;-80
2022/09/23 20:21:21;;;;;;;9.60;5.25;;;;;;;;;;7362905;19;20011;-80
2022/09/23 20:23:46;;;;;;;8.82;4.72;;;;;;;;;;7351681;19;20017;-82
2022/09/23 20:28:55;;;;;;;7.97;4.18;;;;;;;;;;7361184;19;20006;-80
2022/09/23 20:31:21;;;;;;;9.30;4.55;;;;;;;;;;7347385;19;20010;-80
2022/09/23 20:33:50;;;;;;;11.60;5.13;;;;;;;;;;7363323;19;19995;-81
2022/09/23 20:36:15;;;;;;;8.70;4.10;;;;;;;;;;7360998;19;20470;-81
2022/09/23 20:38:41;;;;;;;8.80;5.18;;;;;;;;;;7358016;19;20011;-80
2022/09/23 20:41:07;;;;;;;9.13;5.60;;;;;;;;;;7361252;19;20010;-80
2022/09/23 20:43:33;;;;;;;10.45;5.50;;;;;;;;;;7351074;19;21012;-80
2022/09/23 20:46:00;;;;;;;11.68;6.97;;;;;;;;;;7357256;19;20002;-81
2022/09/23 20:48:25;;;;;;;11.07;6.18;;;;;;;;;;7362883;19;20018;-81
2022/09/23 20:50:51;;;;;;;12.02;6.63;;;;;;;;;;7359136;19;20023;-82
2022/09/23 20:53:17;;;;;;;12.13;5.57;;;;;;;;;;7359463;19;20010;-80
2022/09/23 20:55:49;;;;;;;11.07;6.80;;;;;;;;;;7355799;19;20033;-80
2022/09/23 20:58:15;;;;;;;12.32;7.13;;;;;;;;;;7353438;19;20047;-82
2022/09/23 21:00:41;;;;;;;12.48;7.28;;;;;;;;;;7352441;19;20053;-82
2022/09/23 21:03:07;;;;;;;14.88;7.00;;;;;;;;;;7355086;19;20482;-81
2022/09/23 21:05:33;;;;;;;13.23;8.00;;;;;;;;;;7351930;19;20014;-80
2022/09/23 21:07:58;;;;;;;12.63;8.15;;;;;;;;;;7354129;19;19998;-80
2022/09/23 21:10:23;;;;;;;18.70;8.20;;;;;;;;;;7358745;19;20023;-82
2022/09/23 21:12:49;;;;;;;16.30;7.72;;;;;;;;;;7298666;19;21460;-82
2022/09/23 21:15:14;;;;;;;12.82;6.25;;;;;;;;;;7345542;19;20389;-82
2022/09/23 21:17:39;;;;;;;9.70;5.95;;;;;;;;;;7354233;19;20010;-81
2022/09/23 21:20:05;;;;;;;10.50;6.43;;;;;;;;;;7355877;19;20390;-81
2022/09/23 21:22:31;;;;;;;13.98;7.10;;;;;;;;;;7348226;19;20255;-81
2022/09/23 21:24:56;;;;;;;12.18;7.20;;;;;;;;;;7355954;19;20335;-82
2022/09/23 21:27:21;;;;;;;11.15;6.75;;;;;;;;;;7354391;19;20052;-82
2022/09/23 21:29:46;;;;;;;13.55;7.60;;;;;;;;;;7340537;19;20021;-81
2022/09/23 21:32:11;;;;;;;11.40;7.27;;;;;;;;;;7236026;19;20775;-82
2022/09/23 21:34:37;;;;;;;10.55;6.97;;;;;;;;;;7269241;19;20265;-81
2022/09/23 21:37:02;;;;;;;10.98;7.13;;;;;;;;;;7353875;19;20035;-81
2022/09/23 21:39:28;;;;;;;12.73;8.55;;;;;;;;;;7353828;19;20729;-80
2022/09/23 21:41:53;;;;;;;13.38;8.57;;;;;;;;;;7349542;19;20014;-82
2022/09/23 21:44:18;;;;;;;11.80;7.47;;;;;;;;;;7315031;19;20319;-81
2022/09/23 21:46:43;;;;;;;12.15;7.95;;;;;;;;;;7355323;19;20317;-80
2022/09/23 21:49:09;;;;;;;12.93;8.13;;;;;;;;;;7360096;19;20364;-80
2022/09/23 21:51:37;;;;;;;13.20;7.90;;;;;;;;;;7347223;19;20271;-80
2022/09/23 21:54:03;;;;;;;13.50;8.68;;;;;;;;;;7357787;19;20267;-78
2022/09/23 21:56:30;;;;;;;15.43;7.93;;;;;;;;;;7358351;19;20007;-82
2022/09/23 21:58:56;;;;;;;15.98;8.00;;;;;;;;;;7356133;19;20013;-81
2022/09/23 22:01:25;;;;;;;12.65;8.52;;;;;;;;;;7308927;19;20369;-77
2022/09/23 22:03:51;;;;;;;12.77;7.68;;;;;;;;;;7324315;19;20006;-77
2022/09/23 22:06:20;;;;;;;16.60;8.23;;;;;;;;;;7349775;19;20025;-77
2022/09/23 22:08:46;;;;;;;13.07;7.53;;;;;;;;;;7355004;19;20002;-77
2022/09/23 22:13:56;;;;;;;15.43;8.68;;;;;;;;;;7352076;19;20516;-77
2022/09/23 22:16:21;;;;;;;15.27;9.23;;;;;;;;;;7350718;19;19998;-77
2022/09/23 22:18:49;;;;;;;14.40;8.48;;;;;;;;;;7363714;19;20010;-76
2022/09/23 22:21:14;;;;;;;12.70;8.25;;;;;;;;;;7347719;19;20380;-75
2022/09/23 22:25:48;;;;;;;15.82;9.00;;;;;;;;;;7377134;19;20382;-81
2022/09/23 22:33:40;;;;;;;15.82;8.00;;;;;;;;;;7399075;19;20518;-81
2022/09/23 22:36:10;;;;;;;13.35;8.07;;;;;;;;;;7384134;19;20105;-81
2022/09/23 22:38:35;;;;;;;11.07;7.22;;;;;;;;;;7375335;19;20011;-83
2022/09/23 22:41:00;;;;;;;14.47;8.57;;;;;;;;;;7394651;19;20379;-82
2022/09/23 22:43:25;;;;;;;14.57;7.07;;;;;;;;;;7377784;19;20769;-83
2022/09/23 22:45:51;;;;;;;12.23;6.10;;;;;;;;;;7379969;19;20672;-78
2022/09/23 22:48:18;;;;;;;11.82;7.15;;;;;;;;;;7397318;19;20384;-79
2022/09/23 22:50:45;;;;;;;13.35;7.05;;;;;;;;;;7381233;19;20014;-79
2022/09/23 22:53:10;;;;;;;12.65;7.60;;;;;;;;;;7388716;19;20018;-80
2022/09/23 22:55:35;;;;;;;14.27;7.00;;;;;;;;;;7393343;19;20023;-81
2022/09/23 22:58:00;;;;;;;13.60;6.70;;;;;;;;;;7389590;19;20018;-81
2022/09/23 23:00:27;;;;;;;13.13;6.93;;;;;;;;;;7388874;19;20010;-81
2022/09/23 23:02:53;;;;;;;11.70;7.07;;;;;;;;;;7362901;19;20289;-81
2022/09/23 23:05:18;;;;;;;13.77;7.25;;;;;;;;;;7388963;19;20024;-80
2022/09/23 23:07:43;;;;;;;11.77;7.00;;;;;;;;;;7372890;19;20261;-80
2022/09/23 23:10:09;;;;;;;14.32;7.03;;;;;;;;;;7384864;19;20986;-81
2022/09/23 23:12:34;;;;;;;12.60;7.10;;;;;;;;;;7377892;19;20469;-82
2022/09/23 23:14:59;;;;;;;13.70;7.18;;;;;;;;;;7389115;19;20015;-80
2022/09/23 23:17:24;;;;;;;12.47;6.87;;;;;;;;;;7386300;19;20553;-83
2022/09/23 23:19:50;;;;;;;13.30;6.80;;;;;;;;;;7380003;19;20278;-81
2022/09/23 23:22:15;;;;;;;13.13;6.45;;;;;;;;;;7397419;19;20011;-83
2022/09/23 23:24:40;;;;;;;13.50;6.80;;;;;;;;;;7396318;19;20006;-81
2022/09/23 23:27:05;;;;;;;13.50;7.33;;;;;;;;;;7397740;19;20247;-79
2022/09/23 23:29:30;;;;;;;12.33;7.07;;;;;;;;;;7397317;19;20250;-82
2022/09/23 23:31:55;;;;;;;12.67;6.77;;;;;;;;;;7387043;19;20259;-79
2022/09/23 23:34:21;;;;;;;11.77;6.40;;;;;;;;;;7389494;19;20267;-81
2022/09/23 23:36:53;;;;;;;11.07;6.13;;;;;;;;;;7364513;19;20688;-79
2022/09/23 23:39:18;;;;;;;14.38;7.70;;;;;;;;;;7353202;19;20097;-80
2022/09/23 23:41:44;;;;;;;11.68;6.78;;;;;;;;;;7368067;19;20011;-81
2022/09/23 23:44:10;;;;;;;10.75;5.68;;;;;;;;;;7370697;19;20005;-79
2022/09/23 23:46:35;;;;;;;10.43;6.28;;;;;;;;;;7366446;19;20823;-81
2022/09/23 23:49:01;;;;;;;13.27;6.93;;;;;;;;;;7368500;19;20120;-80
2022/09/23 23:51:28;;;;;;;13.02;6.63;;;;;;;;;;7369973;19;20342;-81
2022/09/23 23:53:53;;;;;;;12.77;5.68;;;;;;;;;;7360417;19;20014;-82
2022/09/23 23:56:19;;;;;;;14.25;7.22;;;;;;;;;;7355831;19;20121;-83
2022/09/23 23:58:45;;;;;;;9.57;5.72;;;;;;;;;;7369193;19;20097;-82
